CW5521 Weather Reports


Display with metric or nautical units.
time (UTC)temp
F
wind
direction
speed
MPH
gust
MPH
rain 1hr
in
rain 24hr
in
rain mn
in
humidity
%
barometer
mb
20260906124632 71 145 0.0 4.0 0.00 0.00 0.00 92 1017.1
20260906123637 71 65 0.0 7.0 0.00 0.00 0.00 92 1016.8
20260906122633 71 97 1.0 7.0 0.00 0.00 0.00 93 1016.6
20260906121617 71 129 1.0 5.0 0.00 0.00 0.00 92 1016.4
20260906115458 70 109 0.0 5.0 0.00 0.00 0.00 93 1016.1
20260906114504 70 355 0.0 5.0 0.00 0.00 0.00 93 1015.8
20260906113508 70 163 0.0 5.0 0.00 0.00 0.00 93 1015.7
20260906112516 70 120 0.0 1.0 0.00 0.00 0.00 93 1015.5
20260906111507 70 180 0.0 4.0 0.00 0.00 0.00 92 1015.2
20260906110442 70 127 1.0 4.0 0.00 0.00 0.00 92 1015.2
20260906105438 70 136 0.0 4.0 0.00 0.00 0.00 92 1015.3
20260906104434 70 132 0.0 4.0 0.00 0.00 0.00 92 1015.2
20260906102333 70 69 0.0 4.0 0.00 0.00 0.00 92 1014.9
20260906101351 70 129 0.0 6.0 0.00 0.00 0.00 92 1014.7
20260906095159 70 143 0.0 5.0 0.00 0.00 0.00 92 1014.8
20260906093036 70 57 0.0 3.0 0.00 0.00 0.00 92 1014.7
20260906090917 70 121 0.0 3.0 0.00 0.00 0.00 92 1014.8
20260906085921 70 141 0.0 2.0 0.00 0.00 0.00 92 1014.7
20260906084910 70 104 0.0 2.0 0.00 0.00 0.00 92 1014.7
20260906083911 70 152 0.0 3.0 0.00 0.00 0.00 92 1014.8
20260906082921 70 96 0.0 3.0 0.00 0.00 0.00 92 1014.8
20260906081853 70 86 0.0 3.0 0.00 0.00 0.00 92 1014.9
20260906080914 70 138 0.0 2.0 0.00 0.00 0.00 92 1015.1
20260906075854 70 65 0.0 1.0 0.00 0.00 0.00 92 1015.1
20260906074905 70 198 0.0 0.0 0.00 0.00 0.00 92 1015.0
20260906073925 70 198 0.0 0.0 0.00 0.00 0.00 92 1015.1
20260906072859 70 65 0.0 1.0 0.00 0.00 0.00 92 1015.2
20260906071834 70 76 0.0 1.0 0.00 0.00 0.00 92 1015.1
20260906065731 70 86 0.0 0.0 0.00 0.00 0.00 91 1015.2
20260906062505 71 138 0.0 2.0 0.00 0.00 0.00 91 1015.3
20260906061507 71 151 0.0 2.0 0.00 0.00 0.00 91 1015.4
20260906060511 71 121 0.0 7.0 0.00 0.00 0.00 91 1015.4
20260906055440 71 115 0.0 3.0 0.00 0.00 0.00 91 1015.3
20260906054423 71 107 0.0 1.0 0.00 0.00 0.00 91 1015.2
20260906053357 72 14 0.0 4.0 0.00 0.00 0.00 91 1015.0
20260906052403 72 90 0.0 4.0 0.00 0.00 0.00 91 1015.0
20260906050228 72 126 1.0 8.0 0.00 0.00 0.00 90 1014.9
20260906045245 72 119 1.0 8.0 0.00 0.00 0.00 90 1014.7
20260906041953 73 123 1.0 7.0 0.00 0.00 0.00 90 1014.1
20260906040923 74 142 1.0 7.0 0.00 0.00 0.00 89 1014.0
20260906035935 74 138 1.0 5.0 0.00 0.00 0.00 89 1013.9
20260906033737 74 84 0.0 3.0 0.00 0.00 0.00 89 1013.8
20260906032723 75 100 0.0 0.0 0.00 0.00 0.00 88 1013.6
20260906031710 75 101 0.0 2.0 0.00 0.00 0.00 88 1013.6
20260906030655 75 142 0.0 2.0 0.00 0.00 0.00 88 1013.4
20260906025659 75 153 0.0 4.0 0.00 0.00 0.00 87 1013.5
20260906023545 76 127 0.0 3.0 0.00 0.00 0.00 86 1013.4
20260906021355 76 119 0.0 6.0 0.00 0.00 0.00 85 1013.4
20260906014135 77 138 0.0 2.0 0.00 0.00 0.00 84 1013.2
20260906012012 78 153 1.0 8.0 0.00 0.00 0.00 83 1012.7
20260906011020 79 130 1.0 5.0 0.00 0.00 0.00 83 1012.7
20260906004845 80 173 1.0 9.0 0.00 0.00 0.00 82 1012.4
20260906003828 80 134 1.0 9.0 0.00 0.00 0.00 80 1012.3
20260906001657 82 150 1.0 6.0 0.00 0.00 0.00 78 1012.2
20260906000720 83 117 0.0 6.0 0.00 0.00 0.00 77 1012.3
20260905235726 83 46 1.0 5.0 0.00 0.00 0.00 78 1012.1
20260905234747 84 333 0.0 5.0 0.00 0.00 0.00 77 1012.1
20260905233736 84 109 1.0 6.0 0.00 0.00 0.00 77 1012.0
20260905232749 85 107 1.0 6.0 0.00 0.00 0.00 77 1011.9
20260905231750 85 175 0.0 6.0 0.00 0.00 0.00 77 1011.8
20260905230811 86 73 1.0 6.0 0.00 0.00 0.00 76 1011.6
20260905225756 87 71 0.0 6.0 0.00 0.00 0.00 76 1011.5
20260905224746 87 175 1.0 7.0 0.00 0.00 0.00 75 1011.5
20260905223715 88 67 0.0 7.0 0.00 0.00 0.00 74 1011.7
20260905222732 88 32 0.0 3.0 0.00 0.00 0.00 73 1011.7
20260905221743 88 82 0.0 8.0 0.00 0.00 0.00 74 1011.6
20260905215618 89 244 1.0 7.0 0.00 0.00 0.00 72 1011.5
20260905214542 89 345 1.0 7.0 0.00 0.00 0.00 71 1011.5
20260905212343 90 11 1.0 8.0 0.00 0.00 0.00 70 1011.4
20260905211321 90 350 1.0 8.0 0.00 0.00 0.00 72 1011.4
20260905210244 90 14 2.0 8.0 0.00 0.00 0.00 70 1011.3
20260905205222 90 18 0.0 3.0 0.00 0.00 0.00 71 1011.5
20260905203130 91 58 1.0 7.0 0.00 0.00 0.00 70 1011.6
20260905201019 90 79 1.0 9.0 0.00 0.00 0.00 72 1011.7
20260905200018 90 324 1.0 9.0 0.00 0.00 0.00 70 1011.8
20260905195032 91 28 1.0 4.0 0.00 0.00 0.00 69 1011.8
20260905194041 92 326 1.0 7.0 0.00 0.00 0.00 68 1011.8
20260905193032 90 81 1.0 7.0 0.00 0.00 0.00 72 1011.8
20260905192038 93 40 0.0 5.0 0.00 0.00 0.00 68 1011.9
20260905191100 93 333 1.0 3.0 0.00 0.00 0.00 66 1011.9
20260905184939 91 351 1.0 6.0 0.00 0.00 0.00 70 1012.0
20260905183928 92 103 1.0 8.0 0.00 0.00 0.00 69 1012.2
20260905182907 93 9 2.0 8.0 0.00 0.00 0.00 65 1012.3
20260905180710 93 75 0.0 7.0 0.00 0.00 0.00 66 1012.4
20260905175638 94 350 2.0 7.0 0.00 0.00 0.00 63 1012.4
20260905174627 92 293 0.0 6.0 0.00 0.00 0.00 66 1012.4
20260905172451 92 276 0.0 5.0 0.00 0.00 0.00 68 1012.5
20260905171447 91 134 0.0 5.0 0.00 0.00 0.00 69 1012.6
20260905170443 90 76 0.0 5.0 0.00 0.00 0.00 72 1012.7
20260905165455 90 150 1.0 5.0 0.00 0.00 0.00 70 1012.7
20260905164438 89 136 0.0 6.0 0.00 0.00 0.00 72 1012.7
20260905163412 89 127 0.0 3.0 0.00 0.00 0.00 73 1012.8
20260905161303 89 36 1.0 4.0 0.00 0.00 0.00 74 1012.8
20260905160238 88 45 0.0 4.0 0.00 0.00 0.00 75 1012.8
20260905155211 87 63 1.0 4.0 0.00 0.00 0.00 75 1012.8
20260905154226 86 0 0.0 4.0 0.00 0.00 0.00 76 1012.8
20260905152106 85 42 1.0 5.0 0.00 0.00 0.00 76 1012.6
20260905151040 85 9 1.0 4.0 0.00 0.00 0.00 76 1012.6
20260905150011 84 34 1.0 5.0 0.00 0.00 0.00 77 1012.5
20260905145028 84 0 2.0 6.0 0.00 0.00 0.00 77 1012.5
20260905144042 83 271 2.0 8.0 0.00 0.00 0.00 77 1012.5
20260905143026 83 276 3.0 8.0 0.00 0.00 0.00 77 1012.3
20260905142038 83 265 2.0 7.0 0.00 0.00 0.00 79 1012.3
20260905141017 82 317 1.0 6.0 0.00 0.00 0.00 79 1012.2
20260905140036 82 313 1.0 5.0 0.00 0.00 0.00 79 1012.1
20260905133926 80 267 1.0 4.0 0.00 0.00 0.00 82 1012.1
20260905132914 80 270 0.0 2.0 0.00 0.00 0.00 84 1012.0
20260905131935 79 292 0.0 2.0 0.00 0.00 0.00 84 1012.0
20260905130951 79 281 0.0 3.0 0.00 0.00 0.00 85 1012.2
20260905125947 78 293 0.0 3.0 0.00 0.00 0.00 86 1012.2